Etusivu
METAR-TAF:

METAR-TAF

Lentoasemat :

Fayette Regional Air Center

La Grange, Texas, Yhdysvallat

Leveyspiiri: 29-54-29N, Pituuspiiri: 096-57-00W, korkeus merenpinnasta: 99 m

Tämänhetkinen sää

Tämä raportti tehtiin 22 minuuttia sitten, kello 22.35 UTC
Tuuli 12 kn kaakosta
Lämpötila 31°C
Kosteus 75%
Ilmanpaine 1007 hPa
Näkyvyys: 16.1 km
Hajanaisia pilviä 3700 ft:n korkeudessa
Hajanaisia pilviä 5000 ft:n korkeudessa

METAR: K3T5 232235Z AUTO 14012KT 10SM SCT037 SCT050 31/26 A2974 RMK AO2 T03130255 $

Aika: 17:57 (22:57 UTC)


TAF: puuttuu

Säähavainnot ja -ennusteet yli 4000 lentoasemalta (METAR- ja TAF-raportit).

Käytössä olevat sääasemat on merkitty karttaan keltaisilla ja punaisilla pisteillä.

Aseta hiiri pisteen päälle nähdäksesi sääaseman nimen.

Klikkaa sitten nähdäksesi säähavainnot ja -ennusteet.

Kartan vaihtaminen: klikkaa mustalla rastilla varustettuja vihreitä pisteitä, niin voit zoomata sisään; viivalla varustettua vihreää pistettä, niin voit zoomata ulos tai vihreitä nuolia, niin pääset viereisille kartoille.


METAR-TAF: